Saltar al contingut principal

Dades de l'estació automàtica Baldomar

Selector estació i data
?
?

Resum diari

23:00 TU
Dades diàries de l'estació meteorològica
Temperatura mitjana 23.0 °C
Temperatura màxima 30.7 °C 15:49 TU
Temperatura mínima 17.7 °C 3:11 TU
Humitat relativa mitjana 55%
Precipitació acumulada 0.0 mm
Ratxa màxima del vent (2 m) 23.8 km/h - 181º 10:06 TU
Irradiació solar global 26.7 MJ/m2

El tram horari està expressat en Temps Universal (TU). Cal sumar una hora en horari d'hivern i dues en horari d'estiu per passar a l'hora oficial.

Baldomar

Metadades estació meteorològica
Municipi Artesa de Segre
Comarca Noguera
Altitud 366 m
Data alta 24.10.2006
Estat actual Operativa
Dades de període
Període
TU
TM
°C
TX
°C
TN
°C
HRM
%
PPT
mm
VVM (2 m)
km/h
DVM (2 m)
graus
VVX (2 m)
km/h
RS
W/m2
00:00 - 00:30 19.5 19.6 19.5 70 0.0 2.2 71 8.6 0
00:30 - 01:00 19.5 19.5 19.4 70 0.0 1.1 70 4.0 0
01:00 - 01:30 19.1 19.4 18.3 74 0.0 2.9 177 5.8 0
01:30 - 02:00 18.0 18.3 17.8 82 0.0 1.4 274 5.0 0
02:00 - 02:30 18.0 18.3 17.8 80 0.0 4.0 346 9.0 0
02:30 - 03:00 18.3 18.5 17.8 78 0.0 2.9 276 6.8 0
03:00 - 03:30 17.8 17.9 17.7 84 0.0 1.4 171 4.3 0
03:30 - 04:00 18.1 18.2 17.9 80 0.0 1.1 156 2.9 0
04:00 - 04:30 18.2 18.2 18.1 79 0.0 1.8 127 7.2 1
04:30 - 05:00 18.0 18.1 17.9 76 0.0 2.2 134 5.8 12
05:00 - 05:30 18.0 18.1 18.0 76 0.0 2.2 182 5.4 37
05:30 - 06:00 18.3 18.5 18.1 74 0.0 4.7 157 7.6 59
06:00 - 06:30 18.5 18.7 18.4 71 0.0 4.7 156 9.0 76
06:30 - 07:00 19.0 19.2 18.6 69 0.0 3.2 162 9.4 145
07:00 - 07:30 20.2 20.8 19.2 62 0.0 4.3 206 9.0 441
07:30 - 08:00 21.4 22.0 20.7 57 0.0 3.6 304 11.2 538
08:00 - 08:30 22.0 22.8 21.5 53 0.0 4.3 259 11.9 618
08:30 - 09:00 23.0 23.6 22.3 50 0.0 7.2 215 15.5 748
09:00 - 09:30 23.3 24.5 21.9 49 0.0 5.0 245 15.8 660
09:30 - 10:00 24.0 25.1 23.3 47 0.0 5.8 217 19.4 731
10:00 - 10:30 24.5 25.1 23.4 46 0.0 11.2 191 23.8 903
10:30 - 11:00 25.0 25.8 23.8 44 0.0 8.3 187 18.4 829
11:00 - 11:30 26.3 27.5 24.5 40 0.0 6.1 257 16.6 809
11:30 - 12:00 26.1 27.5 24.4 40 0.0 8.6 212 23.0 889
12:00 - 12:30 27.0 27.7 26.3 37 0.0 9.4 195 22.0 959
12:30 - 13:00 26.9 28.1 26.4 37 0.0 6.8 203 19.8 624
13:00 - 13:30 26.8 28.5 25.9 37 0.0 7.6 218 20.2 675
13:30 - 14:00 28.3 29.7 27.1 34 0.0 6.1 207 21.6 917
14:00 - 14:30 28.5 30.0 27.6 33 0.0 6.8 278 17.6 754
14:30 - 15:00 29.4 30.1 28.6 31 0.0 5.8 233 18.0 727
15:00 - 15:30 29.1 30.4 28.0 31 0.0 6.8 250 16.2 634
15:30 - 16:00 30.1 30.7 29.5 29 0.0 5.8 276 15.5 669
16:00 - 16:30 29.6 30.3 29.2 30 0.0 5.4 280 12.2 558
16:30 - 17:00 30.0 30.7 29.4 29 0.0 6.5 324 16.2 477
17:00 - 17:30 28.9 30.2 28.3 30 0.0 4.0 244 18.7 183
17:30 - 18:00 28.0 28.4 27.8 30 0.0 8.6 198 17.6 80
18:00 - 18:30 27.6 27.8 27.4 30 0.0 7.9 188 14.8 57
18:30 - 19:00 26.4 27.4 25.3 40 0.0 12.2 173 23.8 33
19:00 - 19:30 24.7 25.3 23.9 49 0.0 7.6 170 15.5 10
19:30 - 20:00 23.0 23.9 21.9 54 0.0 2.9 88 7.6 0
20:00 - 20:30 21.9 22.2 21.5 58 0.0 2.5 136 6.5 0
20:30 - 21:00 20.8 21.4 20.3 61 0.0 2.9 50 6.5 0
21:00 - 21:30 20.2 20.7 19.9 64 0.0 3.2 59 7.9 0
21:30 - 22:00 20.1 20.4 19.5 65 0.0 4.0 20 9.0 0
22:00 - 22:30 19.7 20.0 19.3 66 0.0 4.0 37 6.8 0
22:30 - 23:00 19.6 19.8 19.2 67 0.0 3.2 43 7.2 0
23:00 - 23:30 18.3 19.1 17.9 72 0.0 2.9 70 6.5 0

Les dades en taronja només han passat un control de qualitat automàtic. Resta pendent la seva validació definitiva.